sensor_id;sensor_type;location;lat;lon;timestamp;P1;durP1;ratioP1;P2;durP2;ratioP2
691;SDS011;328;50.086;8.576;2023-03-01T00:01:08;9.90;;;7.13;;
691;SDS011;328;50.086;8.576;2023-03-01T00:03:37;13.13;;;5.93;;
691;SDS011;328;50.086;8.576;2023-03-01T00:06:04;11.03;;;7.97;;
691;SDS011;328;50.086;8.576;2023-03-01T00:08:33;12.00;;;8.27;;
691;SDS011;328;50.086;8.576;2023-03-01T00:11:03;10.73;;;7.23;;
691;SDS011;328;50.086;8.576;2023-03-01T00:13:32;11.23;;;8.23;;
691;SDS011;328;50.086;8.576;2023-03-01T00:16:01;10.03;;;7.60;;
691;SDS011;328;50.086;8.576;2023-03-01T00:18:29;10.97;;;7.10;;
691;SDS011;328;50.086;8.576;2023-03-01T00:20:56;10.60;;;7.40;;
691;SDS011;328;50.086;8.576;2023-03-01T00:23:24;12.33;;;7.50;;
691;SDS011;328;50.086;8.576;2023-03-01T00:25:52;12.47;;;7.87;;
691;SDS011;328;50.086;8.576;2023-03-01T00:28:21;12.97;;;7.40;;
691;SDS011;328;50.086;8.576;2023-03-01T00:30:49;9.83;;;7.20;;
691;SDS011;328;50.086;8.576;2023-03-01T00:33:16;9.90;;;6.70;;
691;SDS011;328;50.086;8.576;2023-03-01T00:35:44;11.03;;;7.40;;
691;SDS011;328;50.086;8.576;2023-03-01T00:38:12;11.27;;;7.43;;
691;SDS011;328;50.086;8.576;2023-03-01T00:40:39;12.37;;;8.20;;
691;SDS011;328;50.086;8.576;2023-03-01T00:43:07;11.60;;;8.00;;
691;SDS011;328;50.086;8.576;2023-03-01T00:45:37;14.57;;;8.10;;
691;SDS011;328;50.086;8.576;2023-03-01T00:48:05;11.43;;;7.90;;
691;SDS011;328;50.086;8.576;2023-03-01T00:50:32;12.20;;;8.37;;
691;SDS011;328;50.086;8.576;2023-03-01T00:53:00;10.10;;;7.97;;
691;SDS011;328;50.086;8.576;2023-03-01T00:55:27;9.23;;;6.77;;
691;SDS011;328;50.086;8.576;2023-03-01T00:57:55;12.00;;;7.95;;
691;SDS011;328;50.086;8.576;2023-03-01T01:00:23;10.90;;;7.70;;
691;SDS011;328;50.086;8.576;2023-03-01T01:02:55;9.83;;;8.33;;
691;SDS011;328;50.086;8.576;2023-03-01T01:05:22;12.50;;;7.00;;
691;SDS011;328;50.086;8.576;2023-03-01T01:07:50;14.90;;;8.40;;
691;SDS011;328;50.086;8.576;2023-03-01T01:10:17;10.17;;;7.80;;
691;SDS011;328;50.086;8.576;2023-03-01T01:12:45;15.53;;;8.53;;
691;SDS011;328;50.086;8.576;2023-03-01T01:15:13;14.80;;;8.70;;
691;SDS011;328;50.086;8.576;2023-03-01T01:17:42;13.30;;;8.90;;
691;SDS011;328;50.086;8.576;2023-03-01T01:20:12;9.47;;;7.07;;
691;SDS011;328;50.086;8.576;2023-03-01T01:22:39;12.93;;;8.20;;
691;SDS011;328;50.086;8.576;2023-03-01T01:25:07;12.60;;;8.17;;
691;SDS011;328;50.086;8.576;2023-03-01T01:27:35;14.50;;;8.80;;
691;SDS011;328;50.086;8.576;2023-03-01T01:30:04;12.50;;;8.13;;
691;SDS011;328;50.086;8.576;2023-03-01T01:32:32;11.17;;;8.33;;
691;SDS011;328;50.086;8.576;2023-03-01T01:35:00;12.77;;;8.13;;
691;SDS011;328;50.086;8.576;2023-03-01T01:37:29;12.43;;;9.00;;
691;SDS011;328;50.086;8.576;2023-03-01T01:39:58;10.80;;;7.80;;
691;SDS011;328;50.086;8.576;2023-03-01T01:42:26;14.97;;;9.70;;
691;SDS011;328;50.086;8.576;2023-03-01T01:47:53;11.43;;;7.90;;
691;SDS011;328;50.086;8.576;2023-03-01T01:50:23;12.63;;;8.30;;
691;SDS011;328;50.086;8.576;2023-03-01T01:52:52;12.43;;;8.03;;
691;SDS011;328;50.086;8.576;2023-03-01T01:55:21;12.87;;;8.70;;
691;SDS011;328;50.086;8.576;2023-03-01T01:57:52;10.47;;;8.17;;
691;SDS011;328;50.086;8.576;2023-03-01T02:00:21;11.60;;;7.10;;
691;SDS011;328;50.086;8.576;2023-03-01T02:02:51;11.30;;;8.00;;
691;SDS011;328;50.086;8.576;2023-03-01T02:05:24;12.53;;;8.97;;
691;SDS011;328;50.086;8.576;2023-03-01T02:07:57;12.93;;;8.50;;
691;SDS011;328;50.086;8.576;2023-03-01T02:10:25;12.20;;;7.13;;
691;SDS011;328;50.086;8.576;2023-03-01T02:12:55;15.70;;;8.90;;
691;SDS011;328;50.086;8.576;2023-03-01T02:15:23;12.57;;;9.73;;
691;SDS011;328;50.086;8.576;2023-03-01T02:17:52;12.47;;;7.90;;
691;SDS011;328;50.086;8.576;2023-03-01T02:20:21;17.20;;;9.00;;
691;SDS011;328;50.086;8.576;2023-03-01T02:22:51;18.10;;;8.80;;
691;SDS011;328;50.086;8.576;2023-03-01T02:25:26;12.73;;;8.67;;
691;SDS011;328;50.086;8.576;2023-03-01T02:27:56;14.83;;;8.37;;
691;SDS011;328;50.086;8.576;2023-03-01T02:30:27;14.20;;;8.00;;
691;SDS011;328;50.086;8.576;2023-03-01T02:32:56;12.03;;;7.67;;
691;SDS011;328;50.086;8.576;2023-03-01T02:35:28;17.70;;;9.77;;
691;SDS011;328;50.086;8.576;2023-03-01T02:37:58;11.70;;;8.07;;
691;SDS011;328;50.086;8.576;2023-03-01T02:40:27;15.80;;;8.37;;
691;SDS011;328;50.086;8.576;2023-03-01T02:42:56;12.23;;;8.40;;
691;SDS011;328;50.086;8.576;2023-03-01T02:45:26;14.40;;;9.53;;
691;SDS011;328;50.086;8.576;2023-03-01T02:47:54;15.80;;;9.30;;
691;SDS011;328;50.086;8.576;2023-03-01T02:50:25;17.07;;;10.20;;
691;SDS011;328;50.086;8.576;2023-03-01T02:53:13;12.10;;;7.83;;
691;SDS011;328;50.086;8.576;2023-03-01T02:55:44;11.10;;;8.20;;
691;SDS011;328;50.086;8.576;2023-03-01T02:58:14;15.20;;;10.10;;
691;SDS011;328;50.086;8.576;2023-03-01T03:00:43;13.47;;;9.17;;
691;SDS011;328;50.086;8.576;2023-03-01T03:03:12;14.53;;;8.53;;
691;SDS011;328;50.086;8.576;2023-03-01T03:05:40;13.23;;;8.10;;
691;SDS011;328;50.086;8.576;2023-03-01T03:08:08;11.10;;;7.93;;
691;SDS011;328;50.086;8.576;2023-03-01T03:10:36;16.87;;;10.50;;
691;SDS011;328;50.086;8.576;2023-03-01T03:13:06;12.20;;;9.50;;
691;SDS011;328;50.086;8.576;2023-03-01T03:15:35;13.73;;;8.87;;
691;SDS011;328;50.086;8.576;2023-03-01T03:18:06;14.47;;;9.00;;
691;SDS011;328;50.086;8.576;2023-03-01T03:20:35;20.00;;;10.80;;
691;SDS011;328;50.086;8.576;2023-03-01T03:23:03;15.83;;;9.97;;
691;SDS011;328;50.086;8.576;2023-03-01T03:25:31;12.80;;;8.73;;
691;SDS011;328;50.086;8.576;2023-03-01T03:28:01;11.33;;;8.90;;
691;SDS011;328;50.086;8.576;2023-03-01T03:30:36;14.82;;;9.27;;
691;SDS011;328;50.086;8.576;2023-03-01T03:33:06;15.30;;;10.10;;
691;SDS011;328;50.086;8.576;2023-03-01T03:35:39;13.97;;;9.37;;
691;SDS011;328;50.086;8.576;2023-03-01T03:38:09;17.83;;;10.27;;
691;SDS011;328;50.086;8.576;2023-03-01T03:40:43;14.87;;;8.67;;
691;SDS011;328;50.086;8.576;2023-03-01T03:43:11;13.33;;;10.43;;
691;SDS011;328;50.086;8.576;2023-03-01T03:45:40;12.60;;;8.40;;
691;SDS011;328;50.086;8.576;2023-03-01T03:48:09;13.17;;;8.80;;
691;SDS011;328;50.086;8.576;2023-03-01T03:50:38;18.50;;;10.53;;
691;SDS011;328;50.086;8.576;2023-03-01T03:53:06;11.63;;;8.40;;
691;SDS011;328;50.086;8.576;2023-03-01T03:55:36;12.10;;;8.80;;
691;SDS011;328;50.086;8.576;2023-03-01T03:58:06;13.73;;;9.80;;
691;SDS011;328;50.086;8.576;2023-03-01T04:00:36;20.13;;;10.20;;
691;SDS011;328;50.086;8.576;2023-03-01T04:03:05;15.40;;;10.30;;
691;SDS011;328;50.086;8.576;2023-03-01T04:05:34;14.83;;;9.93;;
691;SDS011;328;50.086;8.576;2023-03-01T04:08:02;17.63;;;10.10;;
691;SDS011;328;50.086;8.576;2023-03-01T04:10:33;16.50;;;9.70;;
691;SDS011;328;50.086;8.576;2023-03-01T04:13:02;15.00;;;9.00;;
691;SDS011;328;50.086;8.576;2023-03-01T04:15:30;14.23;;;10.23;;
691;SDS011;328;50.086;8.576;2023-03-01T04:17:59;16.57;;;10.27;;
691;SDS011;328;50.086;8.576;2023-03-01T04:20:27;20.40;;;9.40;;
691;SDS011;328;50.086;8.576;2023-03-01T04:22:58;12.90;;;8.70;;
691;SDS011;328;50.086;8.576;2023-03-01T04:25:34;12.80;;;9.57;;
691;SDS011;328;50.086;8.576;2023-03-01T04:28:02;19.10;;;9.30;;
691;SDS011;328;50.086;8.576;2023-03-01T04:30:29;15.50;;;9.30;;
691;SDS011;328;50.086;8.576;2023-03-01T04:33:02;14.10;;;9.27;;
691;SDS011;328;50.086;8.576;2023-03-01T04:35:31;16.30;;;11.00;;
691;SDS011;328;50.086;8.576;2023-03-01T04:38:00;16.07;;;8.77;;
691;SDS011;328;50.086;8.576;2023-03-01T04:40:28;16.43;;;10.80;;
691;SDS011;328;50.086;8.576;2023-03-01T04:42:56;19.60;;;9.80;;
691;SDS011;328;50.086;8.576;2023-03-01T04:45:23;15.50;;;9.23;;
691;SDS011;328;50.086;8.576;2023-03-01T04:47:51;14.37;;;9.27;;
691;SDS011;328;50.086;8.576;2023-03-01T04:50:19;16.57;;;10.47;;
691;SDS011;328;50.086;8.576;2023-03-01T04:52:47;15.47;;;9.53;;
691;SDS011;328;50.086;8.576;2023-03-01T04:55:16;16.40;;;9.20;;
691;SDS011;328;50.086;8.576;2023-03-01T04:57:44;13.53;;;10.03;;
691;SDS011;328;50.086;8.576;2023-03-01T05:00:12;14.33;;;8.93;;
691;SDS011;328;50.086;8.576;2023-03-01T05:02:47;14.10;;;9.67;;
691;SDS011;328;50.086;8.576;2023-03-01T05:05:23;14.23;;;10.30;;
691;SDS011;328;50.086;8.576;2023-03-01T05:07:53;14.93;;;9.43;;
691;SDS011;328;50.086;8.576;2023-03-01T05:10:23;16.60;;;10.20;;
691;SDS011;328;50.086;8.576;2023-03-01T05:12:51;17.07;;;10.00;;
691;SDS011;328;50.086;8.576;2023-03-01T05:15:19;14.40;;;10.00;;
691;SDS011;328;50.086;8.576;2023-03-01T05:17:52;15.40;;;10.90;;
691;SDS011;328;50.086;8.576;2023-03-01T05:20:20;15.90;;;9.37;;
691;SDS011;328;50.086;8.576;2023-03-01T05:22:49;14.87;;;9.33;;
691;SDS011;328;50.086;8.576;2023-03-01T05:25:17;15.23;;;9.70;;
691;SDS011;328;50.086;8.576;2023-03-01T05:27:46;15.73;;;10.63;;
691;SDS011;328;50.086;8.576;2023-03-01T05:30:15;14.80;;;9.77;;
691;SDS011;328;50.086;8.576;2023-03-01T05:32:44;17.70;;;9.93;;
691;SDS011;328;50.086;8.576;2023-03-01T05:35:13;14.40;;;9.43;;
691;SDS011;328;50.086;8.576;2023-03-01T05:37:41;20.00;;;12.50;;
691;SDS011;328;50.086;8.576;2023-03-01T05:40:10;20.17;;;11.13;;
691;SDS011;328;50.086;8.576;2023-03-01T05:42:46;16.30;;;10.27;;
691;SDS011;328;50.086;8.576;2023-03-01T05:45:15;20.53;;;10.63;;
691;SDS011;328;50.086;8.576;2023-03-01T05:47:44;21.53;;;10.17;;
691;SDS011;328;50.086;8.576;2023-03-01T05:50:13;23.20;;;12.03;;
691;SDS011;328;50.086;8.576;2023-03-01T05:52:46;17.17;;;9.93;;
691;SDS011;328;50.086;8.576;2023-03-01T05:55:15;16.23;;;9.23;;
691;SDS011;328;50.086;8.576;2023-03-01T05:57:43;16.90;;;9.47;;
691;SDS011;328;50.086;8.576;2023-03-01T06:00:13;18.10;;;10.00;;
691;SDS011;328;50.086;8.576;2023-03-01T06:02:42;13.63;;;9.30;;
691;SDS011;328;50.086;8.576;2023-03-01T06:05:10;18.40;;;11.17;;
691;SDS011;328;50.086;8.576;2023-03-01T06:07:39;13.27;;;8.50;;
691;SDS011;328;50.086;8.576;2023-03-01T06:10:08;16.37;;;11.57;;
691;SDS011;328;50.086;8.576;2023-03-01T06:12:37;17.93;;;11.10;;
691;SDS011;328;50.086;8.576;2023-03-01T06:15:06;14.60;;;10.60;;
691;SDS011;328;50.086;8.576;2023-03-01T06:17:37;14.53;;;9.80;;
691;SDS011;328;50.086;8.576;2023-03-01T06:20:08;14.10;;;8.50;;
691;SDS011;328;50.086;8.576;2023-03-01T06:22:37;13.57;;;9.47;;
691;SDS011;328;50.086;8.576;2023-03-01T06:25:05;19.43;;;10.40;;
691;SDS011;328;50.086;8.576;2023-03-01T06:27:33;13.97;;;9.90;;
691;SDS011;328;50.086;8.576;2023-03-01T06:30:01;13.80;;;9.70;;
691;SDS011;328;50.086;8.576;2023-03-01T06:32:29;15.87;;;9.50;;
691;SDS011;328;50.086;8.576;2023-03-01T06:34:59;14.80;;;10.50;;
691;SDS011;328;50.086;8.576;2023-03-01T06:37:26;16.53;;;10.30;;
691;SDS011;328;50.086;8.576;2023-03-01T06:39:54;17.10;;;10.17;;
691;SDS011;328;50.086;8.576;2023-03-01T06:42:21;18.10;;;10.17;;
691;SDS011;328;50.086;8.576;2023-03-01T06:44:49;18.60;;;11.00;;
691;SDS011;328;50.086;8.576;2023-03-01T06:47:16;16.57;;;10.57;;
691;SDS011;328;50.086;8.576;2023-03-01T06:49:44;14.80;;;10.33;;
691;SDS011;328;50.086;8.576;2023-03-01T06:52:13;18.47;;;10.60;;
691;SDS011;328;50.086;8.576;2023-03-01T06:54:41;18.80;;;10.90;;
691;SDS011;328;50.086;8.576;2023-03-01T06:57:08;14.73;;;9.53;;
691;SDS011;328;50.086;8.576;2023-03-01T06:59:36;16.97;;;10.27;;
691;SDS011;328;50.086;8.576;2023-03-01T07:02:03;16.67;;;9.70;;
691;SDS011;328;50.086;8.576;2023-03-01T07:04:31;14.50;;;9.23;;
691;SDS011;328;50.086;8.576;2023-03-01T07:06:58;16.67;;;9.50;;
691;SDS011;328;50.086;8.576;2023-03-01T07:09:27;13.83;;;9.57;;
691;SDS011;328;50.086;8.576;2023-03-01T07:11:55;17.40;;;10.37;;
691;SDS011;328;50.086;8.576;2023-03-01T07:14:24;15.60;;;9.70;;
691;SDS011;328;50.086;8.576;2023-03-01T07:16:52;15.30;;;10.70;;
691;SDS011;328;50.086;8.576;2023-03-01T07:19:19;14.70;;;9.70;;
691;SDS011;328;50.086;8.576;2023-03-01T07:21:47;17.50;;;10.43;;
691;SDS011;328;50.086;8.576;2023-03-01T07:24:15;14.67;;;9.03;;
691;SDS011;328;50.086;8.576;2023-03-01T07:26:44;16.83;;;9.37;;
691;SDS011;328;50.086;8.576;2023-03-01T07:29:11;15.10;;;8.90;;
691;SDS011;328;50.086;8.576;2023-03-01T07:31:39;12.83;;;9.97;;
691;SDS011;328;50.086;8.576;2023-03-01T07:34:06;21.30;;;9.43;;
691;SDS011;328;50.086;8.576;2023-03-01T07:36:34;18.27;;;10.40;;
691;SDS011;328;50.086;8.576;2023-03-01T07:39:01;16.43;;;9.60;;
691;SDS011;328;50.086;8.576;2023-03-01T07:41:29;15.27;;;10.23;;
691;SDS011;328;50.086;8.576;2023-03-01T07:43:58;16.03;;;9.93;;
691;SDS011;328;50.086;8.576;2023-03-01T07:46:25;18.70;;;9.87;;
691;SDS011;328;50.086;8.576;2023-03-01T07:48:53;15.13;;;10.20;;
691;SDS011;328;50.086;8.576;2023-03-01T07:51:20;16.83;;;10.77;;
691;SDS011;328;50.086;8.576;2023-03-01T07:53:48;16.40;;;10.17;;
691;SDS011;328;50.086;8.576;2023-03-01T07:56:16;16.80;;;9.80;;
691;SDS011;328;50.086;8.576;2023-03-01T07:58:44;20.77;;;11.50;;
691;SDS011;328;50.086;8.576;2023-03-01T08:01:17;14.97;;;9.47;;
691;SDS011;328;50.086;8.576;2023-03-01T08:03:45;17.47;;;10.00;;
691;SDS011;328;50.086;8.576;2023-03-01T08:06:14;16.83;;;9.93;;
691;SDS011;328;50.086;8.576;2023-03-01T08:08:42;15.03;;;8.93;;
691;SDS011;328;50.086;8.576;2023-03-01T08:11:11;19.30;;;11.53;;
691;SDS011;328;50.086;8.576;2023-03-01T08:13:39;16.53;;;10.60;;
691;SDS011;328;50.086;8.576;2023-03-01T08:16:07;13.03;;;8.27;;
691;SDS011;328;50.086;8.576;2023-03-01T08:18:38;16.60;;;10.40;;
691;SDS011;328;50.086;8.576;2023-03-01T08:21:06;16.67;;;10.57;;
691;SDS011;328;50.086;8.576;2023-03-01T08:23:36;13.27;;;9.00;;
691;SDS011;328;50.086;8.576;2023-03-01T08:26:05;15.07;;;9.40;;
691;SDS011;328;50.086;8.576;2023-03-01T08:28:34;14.40;;;10.10;;
691;SDS011;328;50.086;8.576;2023-03-01T08:31:01;18.50;;;12.00;;
691;SDS011;328;50.086;8.576;2023-03-01T08:33:29;16.60;;;11.27;;
691;SDS011;328;50.086;8.576;2023-03-01T08:36:05;21.60;;;10.23;;
691;SDS011;328;50.086;8.576;2023-03-01T08:38:33;16.47;;;11.37;;
691;SDS011;328;50.086;8.576;2023-03-01T08:41:01;15.73;;;9.80;;
691;SDS011;328;50.086;8.576;2023-03-01T08:43:30;22.97;;;13.80;;
691;SDS011;328;50.086;8.576;2023-03-01T08:45:57;15.40;;;9.17;;
691;SDS011;328;50.086;8.576;2023-03-01T08:48:27;20.73;;;14.30;;
691;SDS011;328;50.086;8.576;2023-03-01T08:50:55;16.77;;;10.90;;
691;SDS011;328;50.086;8.576;2023-03-01T08:53:24;14.43;;;8.00;;
691;SDS011;328;50.086;8.576;2023-03-01T08:55:51;37.20;;;20.70;;
691;SDS011;328;50.086;8.576;2023-03-01T08:58:19;21.10;;;13.37;;
691;SDS011;328;50.086;8.576;2023-03-01T09:00:46;17.90;;;12.50;;
691;SDS011;328;50.086;8.576;2023-03-01T09:03:14;24.57;;;15.60;;
691;SDS011;328;50.086;8.576;2023-03-01T09:05:41;32.27;;;16.47;;
691;SDS011;328;50.086;8.576;2023-03-01T09:08:11;19.33;;;11.30;;
691;SDS011;328;50.086;8.576;2023-03-01T09:10:40;15.70;;;11.00;;
691;SDS011;328;50.086;8.576;2023-03-01T09:13:08;20.90;;;12.20;;
691;SDS011;328;50.086;8.576;2023-03-01T09:15:36;17.37;;;11.50;;
691;SDS011;328;50.086;8.576;2023-03-01T09:18:04;18.40;;;10.83;;
691;SDS011;328;50.086;8.576;2023-03-01T09:20:32;14.67;;;11.27;;
691;SDS011;328;50.086;8.576;2023-03-01T09:23:00;19.10;;;11.23;;
691;SDS011;328;50.086;8.576;2023-03-01T09:25:27;18.03;;;10.90;;
691;SDS011;328;50.086;8.576;2023-03-01T09:27:56;17.83;;;10.20;;
691;SDS011;328;50.086;8.576;2023-03-01T09:30:24;13.23;;;10.20;;
691;SDS011;328;50.086;8.576;2023-03-01T09:32:51;15.30;;;9.87;;
691;SDS011;328;50.086;8.576;2023-03-01T09:35:19;16.60;;;10.63;;
691;SDS011;328;50.086;8.576;2023-03-01T09:37:48;15.73;;;10.70;;
691;SDS011;328;50.086;8.576;2023-03-01T09:40:17;16.00;;;10.20;;
691;SDS011;328;50.086;8.576;2023-03-01T09:42:48;14.57;;;9.50;;
691;SDS011;328;50.086;8.576;2023-03-01T09:45:24;13.47;;;9.77;;
691;SDS011;328;50.086;8.576;2023-03-01T09:47:54;15.60;;;9.30;;
691;SDS011;328;50.086;8.576;2023-03-01T09:50:22;18.37;;;11.50;;
691;SDS011;328;50.086;8.576;2023-03-01T09:52:50;15.37;;;9.57;;
691;SDS011;328;50.086;8.576;2023-03-01T09:55:25;15.13;;;10.53;;
691;SDS011;328;50.086;8.576;2023-03-01T09:57:54;17.37;;;11.60;;
691;SDS011;328;50.086;8.576;2023-03-01T10:00:28;15.50;;;10.20;;
691;SDS011;328;50.086;8.576;2023-03-01T10:03:00;15.27;;;10.80;;
691;SDS011;328;50.086;8.576;2023-03-01T10:05:34;16.83;;;8.93;;
691;SDS011;328;50.086;8.576;2023-03-01T10:08:13;15.90;;;8.40;;
691;SDS011;328;50.086;8.576;2023-03-01T10:10:57;16.27;;;10.47;;
691;SDS011;328;50.086;8.576;2023-03-01T10:13:26;16.27;;;10.50;;
691;SDS011;328;50.086;8.576;2023-03-01T10:16:01;14.00;;;10.37;;
691;SDS011;328;50.086;8.576;2023-03-01T10:18:31;19.70;;;11.50;;
691;SDS011;328;50.086;8.576;2023-03-01T10:21:03;17.10;;;11.20;;
691;SDS011;328;50.086;8.576;2023-03-01T10:23:39;15.40;;;10.13;;
691;SDS011;328;50.086;8.576;2023-03-01T10:26:09;18.60;;;10.90;;
691;SDS011;328;50.086;8.576;2023-03-01T10:28:44;17.83;;;13.33;;
691;SDS011;328;50.086;8.576;2023-03-01T10:31:22;26.30;;;14.20;;
691;SDS011;328;50.086;8.576;2023-03-01T10:33:54;21.20;;;14.07;;
691;SDS011;328;50.086;8.576;2023-03-01T10:36:24;13.67;;;9.07;;
691;SDS011;328;50.086;8.576;2023-03-01T10:38:52;18.27;;;12.47;;
691;SDS011;328;50.086;8.576;2023-03-01T10:41:21;15.73;;;11.17;;
691;SDS011;328;50.086;8.576;2023-03-01T10:43:51;15.07;;;9.80;;
691;SDS011;328;50.086;8.576;2023-03-01T10:46:26;15.40;;;10.27;;
691;SDS011;328;50.086;8.576;2023-03-01T10:49:05;17.73;;;9.90;;
691;SDS011;328;50.086;8.576;2023-03-01T10:51:35;17.60;;;10.07;;
691;SDS011;328;50.086;8.576;2023-03-01T10:54:03;19.93;;;13.30;;
691;SDS011;328;50.086;8.576;2023-03-01T10:56:35;17.43;;;12.50;;
691;SDS011;328;50.086;8.576;2023-03-01T10:59:19;10.83;;;7.90;;
691;SDS011;328;50.086;8.576;2023-03-01T11:02:02;18.37;;;11.40;;
691;SDS011;328;50.086;8.576;2023-03-01T11:04:56;18.07;;;12.10;;
691;SDS011;328;50.086;8.576;2023-03-01T11:07:26;13.43;;;9.70;;
691;SDS011;328;50.086;8.576;2023-03-01T11:09:53;12.43;;;9.33;;
691;SDS011;328;50.086;8.576;2023-03-01T11:12:21;16.50;;;10.93;;
691;SDS011;328;50.086;8.576;2023-03-01T11:14:50;15.10;;;10.50;;
691;SDS011;328;50.086;8.576;2023-03-01T11:17:21;15.33;;;10.10;;
691;SDS011;328;50.086;8.576;2023-03-01T11:19:59;16.87;;;10.73;;
691;SDS011;328;50.086;8.576;2023-03-01T11:22:28;13.43;;;9.93;;
691;SDS011;328;50.086;8.576;2023-03-01T11:24:58;14.27;;;9.90;;
691;SDS011;328;50.086;8.576;2023-03-01T11:27:36;17.13;;;9.77;;
691;SDS011;328;50.086;8.576;2023-03-01T11:30:07;10.47;;;6.93;;
691;SDS011;328;50.086;8.576;2023-03-01T11:32:45;17.30;;;10.77;;
691;SDS011;328;50.086;8.576;2023-03-01T11:35:16;14.23;;;11.20;;
691;SDS011;328;50.086;8.576;2023-03-01T11:37:49;16.43;;;9.47;;
691;SDS011;328;50.086;8.576;2023-03-01T11:40:24;10.70;;;7.80;;
691;SDS011;328;50.086;8.576;2023-03-01T11:43:04;16.03;;;10.93;;
691;SDS011;328;50.086;8.576;2023-03-01T11:45:37;12.53;;;8.83;;
691;SDS011;328;50.086;8.576;2023-03-01T11:48:24;13.13;;;8.97;;
691;SDS011;328;50.086;8.576;2023-03-01T11:51:16;15.43;;;10.20;;
691;SDS011;328;50.086;8.576;2023-03-01T11:53:56;17.53;;;10.07;;
691;SDS011;328;50.086;8.576;2023-03-01T11:56:31;17.67;;;9.80;;
691;SDS011;328;50.086;8.576;2023-03-01T12:01:53;15.20;;;7.80;;
691;SDS011;328;50.086;8.576;2023-03-01T12:04:48;18.43;;;10.10;;
691;SDS011;328;50.086;8.576;2023-03-01T12:07:27;13.50;;;8.10;;
691;SDS011;328;50.086;8.576;2023-03-01T12:10:10;10.27;;;8.10;;
691;SDS011;328;50.086;8.576;2023-03-01T12:12:49;13.83;;;8.47;;
691;SDS011;328;50.086;8.576;2023-03-01T12:15:46;10.83;;;7.93;;
691;SDS011;328;50.086;8.576;2023-03-01T12:18:28;10.90;;;7.20;;
691;SDS011;328;50.086;8.576;2023-03-01T12:21:06;16.97;;;8.80;;
691;SDS011;328;50.086;8.576;2023-03-01T12:24:06;12.27;;;8.03;;
691;SDS011;328;50.086;8.576;2023-03-01T12:26:52;13.00;;;8.73;;
691;SDS011;328;50.086;8.576;2023-03-01T12:29:29;12.17;;;7.57;;
691;SDS011;328;50.086;8.576;2023-03-01T12:32:08;10.00;;;6.90;;
691;SDS011;328;50.086;8.576;2023-03-01T12:37:42;12.07;;;8.37;;
691;SDS011;328;50.086;8.576;2023-03-01T12:40:28;13.90;;;8.70;;
691;SDS011;328;50.086;8.576;2023-03-01T12:43:08;10.70;;;8.40;;
691;SDS011;328;50.086;8.576;2023-03-01T12:45:48;11.27;;;8.03;;
691;SDS011;328;50.086;8.576;2023-03-01T12:48:28;10.20;;;7.37;;
691;SDS011;328;50.086;8.576;2023-03-01T12:51:01;10.53;;;6.93;;
691;SDS011;328;50.086;8.576;2023-03-01T12:53:32;13.60;;;8.80;;
691;SDS011;328;50.086;8.576;2023-03-01T12:56:04;11.97;;;8.43;;
691;SDS011;328;50.086;8.576;2023-03-01T12:58:34;12.40;;;8.07;;
691;SDS011;328;50.086;8.576;2023-03-01T13:01:22;9.50;;;7.10;;
691;SDS011;328;50.086;8.576;2023-03-01T13:04:02;11.50;;;7.50;;
691;SDS011;328;50.086;8.576;2023-03-01T13:06:39;10.07;;;6.73;;
691;SDS011;328;50.086;8.576;2023-03-01T13:09:13;8.73;;;6.03;;
691;SDS011;328;50.086;8.576;2023-03-01T13:11:45;12.20;;;8.07;;
691;SDS011;328;50.086;8.576;2023-03-01T13:17:31;11.10;;;7.70;;
691;SDS011;328;50.086;8.576;2023-03-01T13:20:00;10.37;;;7.37;;
691;SDS011;328;50.086;8.576;2023-03-01T13:22:30;10.17;;;6.70;;
691;SDS011;328;50.086;8.576;2023-03-01T13:25:13;11.80;;;7.43;;
691;SDS011;328;50.086;8.576;2023-03-01T13:27:42;15.60;;;7.90;;
691;SDS011;328;50.086;8.576;2023-03-01T13:33:33;8.83;;;7.90;;
691;SDS011;328;50.086;8.576;2023-03-01T13:36:06;10.30;;;6.40;;
691;SDS011;328;50.086;8.576;2023-03-01T13:38:38;10.17;;;6.50;;
691;SDS011;328;50.086;8.576;2023-03-01T13:41:13;9.87;;;7.10;;
691;SDS011;328;50.086;8.576;2023-03-01T13:43:42;8.63;;;6.40;;
691;SDS011;328;50.086;8.576;2023-03-01T13:46:12;9.57;;;6.80;;
691;SDS011;328;50.086;8.576;2023-03-01T13:48:45;9.73;;;7.00;;
691;SDS011;328;50.086;8.576;2023-03-01T13:51:13;11.80;;;7.20;;
691;SDS011;328;50.086;8.576;2023-03-01T13:53:42;9.00;;;6.17;;
691;SDS011;328;50.086;8.576;2023-03-01T13:56:13;14.27;;;6.50;;
691;SDS011;328;50.086;8.576;2023-03-01T13:58:44;11.93;;;6.50;;
691;SDS011;328;50.086;8.576;2023-03-01T14:01:21;8.87;;;6.70;;
691;SDS011;328;50.086;8.576;2023-03-01T14:03:51;12.70;;;7.43;;
691;SDS011;328;50.086;8.576;2023-03-01T14:06:20;9.40;;;8.13;;
691;SDS011;328;50.086;8.576;2023-03-01T14:08:49;11.83;;;6.50;;
691;SDS011;328;50.086;8.576;2023-03-01T14:11:27;10.80;;;6.83;;
691;SDS011;328;50.086;8.576;2023-03-01T14:14:17;10.57;;;7.17;;
691;SDS011;328;50.086;8.576;2023-03-01T14:17:02;7.63;;;6.10;;
691;SDS011;328;50.086;8.576;2023-03-01T14:19:35;11.90;;;7.10;;
691;SDS011;328;50.086;8.576;2023-03-01T14:22:05;7.33;;;5.83;;
691;SDS011;328;50.086;8.576;2023-03-01T14:24:50;10.53;;;9.30;;
691;SDS011;328;50.086;8.576;2023-03-01T14:27:22;9.20;;;7.10;;
691;SDS011;328;50.086;8.576;2023-03-01T14:29:54;13.27;;;7.77;;
691;SDS011;328;50.086;8.576;2023-03-01T14:32:24;11.73;;;7.00;;
691;SDS011;328;50.086;8.576;2023-03-01T14:34:53;11.83;;;7.40;;
691;SDS011;328;50.086;8.576;2023-03-01T14:37:22;12.53;;;8.30;;
691;SDS011;328;50.086;8.576;2023-03-01T14:39:52;15.33;;;8.10;;
691;SDS011;328;50.086;8.576;2023-03-01T14:42:22;7.63;;;5.60;;
691;SDS011;328;50.086;8.576;2023-03-01T14:44:51;8.93;;;6.03;;
691;SDS011;328;50.086;8.576;2023-03-01T14:47:23;10.67;;;7.33;;
691;SDS011;328;50.086;8.576;2023-03-01T14:49:56;10.50;;;7.10;;
691;SDS011;328;50.086;8.576;2023-03-01T14:52:27;10.87;;;6.90;;
691;SDS011;328;50.086;8.576;2023-03-01T14:55:00;13.03;;;7.30;;
691;SDS011;328;50.086;8.576;2023-03-01T14:57:31;8.83;;;6.23;;
691;SDS011;328;50.086;8.576;2023-03-01T15:00:00;6.80;;;5.17;;
691;SDS011;328;50.086;8.576;2023-03-01T15:02:31;11.43;;;6.50;;
691;SDS011;328;50.086;8.576;2023-03-01T15:05:01;10.43;;;7.77;;
691;SDS011;328;50.086;8.576;2023-03-01T15:07:34;12.13;;;6.87;;
691;SDS011;328;50.086;8.576;2023-03-01T15:10:05;8.93;;;7.07;;
691;SDS011;328;50.086;8.576;2023-03-01T15:12:36;10.03;;;6.80;;
691;SDS011;328;50.086;8.576;2023-03-01T15:15:19;12.37;;;7.33;;
691;SDS011;328;50.086;8.576;2023-03-01T15:17:58;11.20;;;7.60;;
691;SDS011;328;50.086;8.576;2023-03-01T15:20:27;8.50;;;5.50;;
691;SDS011;328;50.086;8.576;2023-03-01T15:22:57;11.50;;;6.40;;
691;SDS011;328;50.086;8.576;2023-03-01T15:25:25;9.93;;;6.67;;
691;SDS011;328;50.086;8.576;2023-03-01T15:27:55;9.13;;;6.40;;
691;SDS011;328;50.086;8.576;2023-03-01T15:30:25;10.20;;;6.40;;
691;SDS011;328;50.086;8.576;2023-03-01T15:35:46;9.40;;;5.67;;
691;SDS011;328;50.086;8.576;2023-03-01T15:38:31;8.33;;;6.63;;
691;SDS011;328;50.086;8.576;2023-03-01T15:41:04;10.53;;;7.60;;
691;SDS011;328;50.086;8.576;2023-03-01T15:43:41;11.47;;;7.30;;
691;SDS011;328;50.086;8.576;2023-03-01T15:46:13;9.30;;;7.00;;
691;SDS011;328;50.086;8.576;2023-03-01T15:48:44;10.03;;;6.83;;
691;SDS011;328;50.086;8.576;2023-03-01T15:51:13;7.30;;;5.53;;
691;SDS011;328;50.086;8.576;2023-03-01T15:53:42;8.53;;;5.57;;
691;SDS011;328;50.086;8.576;2023-03-01T15:56:19;10.40;;;7.23;;
691;SDS011;328;50.086;8.576;2023-03-01T15:58:48;10.37;;;6.00;;
691;SDS011;328;50.086;8.576;2023-03-01T16:01:16;9.60;;;6.37;;
691;SDS011;328;50.086;8.576;2023-03-01T16:03:45;7.70;;;5.83;;
691;SDS011;328;50.086;8.576;2023-03-01T16:06:12;11.00;;;6.73;;
691;SDS011;328;50.086;8.576;2023-03-01T16:08:41;9.67;;;6.60;;